createdAt,value
2022-10-20T00:05:18.277Z,62.2
2022-10-20T00:16:28.244Z,62.2
2022-10-20T00:22:03.431Z,62.3
2022-10-20T00:27:39.568Z,62.8
2022-10-20T00:33:14.329Z,62.8
2022-10-20T00:38:49.369Z,61.6
2022-10-20T00:44:24.401Z,60.6
2022-10-20T00:49:59.363Z,60.3
2022-10-20T00:55:34.603Z,59.4
2022-10-20T01:01:09.763Z,59.3
2022-10-20T01:06:44.585Z,58.9
2022-10-20T01:12:19.481Z,58.8
2022-10-20T01:17:54.186Z,58.5
2022-10-20T01:23:29.318Z,57.4
2022-10-20T01:29:04.423Z,57.2
2022-10-20T01:34:52.871Z,57.6
2022-10-20T01:40:28.135Z,57.7
2022-10-20T01:46:03.029Z,57.7
2022-10-20T01:51:38.042Z,57.9
2022-10-20T01:57:14.327Z,58.2
2022-10-20T02:02:49.281Z,58.7
2022-10-20T02:08:24.262Z,59.1
2022-10-20T02:13:59.922Z,59.5
2022-10-20T02:19:34.983Z,60
2022-10-20T02:25:10.142Z,60.2
2022-10-20T02:30:45.072Z,60.4
2022-10-20T02:36:20.290Z,60.9
2022-10-20T02:41:56.526Z,61.8
2022-10-20T02:47:31.344Z,62.4
2022-10-20T02:53:06.239Z,63
2022-10-20T02:58:41.186Z,64.2
2022-10-20T03:04:16.727Z,64.2
2022-10-20T03:09:52.306Z,64.4
2022-10-20T03:15:27.403Z,65
2022-10-20T03:21:02.198Z,65.3
2022-10-20T03:26:37.048Z,65.7
2022-10-20T03:32:12.134Z,65.7
2022-10-20T03:37:46.774Z,65.9
2022-10-20T03:43:23.466Z,66
2022-10-20T03:48:58.323Z,66
2022-10-20T03:54:33.271Z,66.3
2022-10-20T04:00:08.512Z,66.5
2022-10-20T04:05:43.699Z,66.8
2022-10-20T04:11:18.797Z,67
2022-10-20T04:16:53.609Z,67.6
2022-10-20T04:22:28.494Z,67.9
2022-10-20T04:28:03.360Z,68.1
2022-10-20T04:33:38.225Z,68.3
2022-10-20T04:39:14.349Z,68.2
2022-10-20T04:44:49.286Z,68.3
2022-10-20T04:50:25.042Z,68.5
2022-10-20T04:56:00.087Z,68.8
2022-10-20T05:01:36.615Z,69
2022-10-20T05:07:12.406Z,69
2022-10-20T05:12:47.398Z,69.1
2022-10-20T05:18:23.342Z,69.1
2022-10-20T05:23:58.119Z,69.1
2022-10-20T05:29:32.945Z,69.4
2022-10-20T05:35:07.695Z,69.4
2022-10-20T05:40:43.712Z,69.1
2022-10-20T05:46:18.983Z,69.2
2022-10-20T05:51:54.137Z,69.6
2022-10-20T05:57:28.987Z,69.8
2022-10-20T06:03:03.856Z,69.9
2022-10-20T06:08:41.251Z,71.1
2022-10-20T06:14:16.584Z,72.2
2022-10-20T06:19:52.707Z,71.1
2022-10-20T06:25:27.283Z,76
2022-10-20T06:31:04.033Z,75.4
2022-10-20T06:36:39.126Z,71.2
2022-10-20T06:42:25.853Z,62.6
2022-10-20T06:48:00.647Z,64.1
2022-10-20T06:53:36.035Z,64.4
2022-10-20T06:59:11.163Z,62
2022-10-20T07:04:48.972Z,60.7
2022-10-20T07:10:24.679Z,63.5
2022-10-20T07:15:59.876Z,62.5
2022-10-20T07:21:45.845Z,63.7
2022-10-20T07:27:21.049Z,62.5
2022-10-20T07:32:55.970Z,65.3
2022-10-20T07:38:30.807Z,64.9
2022-10-20T07:44:05.822Z,66
2022-10-20T07:49:45.595Z,63.3
2022-10-20T07:55:39.159Z,64.7
2022-10-20T08:01:15.783Z,62.3
2022-10-20T08:06:52.372Z,66.3
2022-10-20T08:12:27.508Z,67
2022-10-20T08:18:02.949Z,63.4
2022-10-20T08:23:41.764Z,62.1
2022-10-20T08:29:17.670Z,65.9
2022-10-20T08:34:52.775Z,67.9
2022-10-20T08:40:27.557Z,61.9
2022-10-20T08:46:05.053Z,66.2
2022-10-20T08:51:40.469Z,65.5
2022-10-20T08:57:15.627Z,62.7
2022-10-20T09:02:50.370Z,65.5
2022-10-20T09:08:28.825Z,64.7
2022-10-20T09:14:04.261Z,61.2
2022-10-20T09:19:39.311Z,58.4
2022-10-20T09:25:15.057Z,54
2022-10-20T09:30:59.071Z,59.8
2022-10-20T09:36:34.036Z,56.1
2022-10-20T09:42:10.112Z,65
2022-10-20T09:47:51.649Z,64.6
2022-10-20T09:53:27.526Z,57.1
2022-10-20T09:59:03.420Z,46
2022-10-20T10:04:39.305Z,45.7
2022-10-20T10:10:14.525Z,52.9
2022-10-20T10:15:49.794Z,53
2022-10-20T10:21:25.182Z,48.4
2022-10-20T10:27:01.615Z,46.4
2022-10-20T10:32:37.706Z,46.2
2022-10-20T10:38:14.255Z,45.1
2022-10-20T10:43:49.557Z,46.6
2022-10-20T10:49:24.599Z,44.7
2022-10-20T10:54:59.649Z,48
2022-10-20T11:00:35.690Z,47.8
2022-10-20T11:06:12.540Z,45.6
2022-10-20T11:11:48.018Z,50.3
2022-10-20T11:17:23.077Z,50.9
2022-10-20T11:22:59.109Z,51.2
2022-10-20T11:28:34.065Z,45.2
2022-10-20T11:34:09.637Z,47.1
2022-10-20T11:39:44.793Z,47.3
2022-10-20T11:45:19.756Z,51.3
2022-10-20T11:50:56.162Z,40.8
2022-10-20T11:56:32.170Z,42.3
2022-10-20T12:02:07.360Z,46.3
2022-10-20T12:07:42.906Z,37.1
2022-10-20T12:13:17.835Z,45.2
2022-10-20T12:24:37.298Z,47.5
2022-10-20T12:30:12.892Z,46.7
2022-10-20T12:35:47.632Z,43.8
2022-10-20T12:41:22.500Z,44.8
2022-10-20T12:46:57.345Z,42.7
2022-10-20T12:52:33.135Z,45.3
2022-10-20T12:58:08.132Z,41
2022-10-20T13:03:43.221Z,46.9
2022-10-20T13:09:18.349Z,46.1
2022-10-20T13:14:53.033Z,40.2
2022-10-20T13:20:28.011Z,42.3
2022-10-20T13:26:03.788Z,38.7
2022-10-20T13:31:39.567Z,39.6
2022-10-20T13:37:22.524Z,40.4
2022-10-20T13:42:57.944Z,38.8
2022-10-20T13:48:32.784Z,41.3
2022-10-20T13:54:07.951Z,39
2022-10-20T13:59:45.344Z,39.5
2022-10-20T14:05:20.792Z,42.2
2022-10-20T14:10:55.837Z,42
2022-10-20T14:16:30.771Z,41.2
2022-10-20T14:22:06.016Z,43
2022-10-20T14:27:41.679Z,44
2022-10-20T14:33:16.819Z,42.2
2022-10-20T14:38:52.979Z,41.2
2022-10-20T14:44:32.202Z,42.2
2022-10-20T14:50:08.766Z,43.4
2022-10-20T14:55:43.781Z,45.4
2022-10-20T15:01:21.287Z,43.3
2022-10-20T15:06:56.394Z,43.7
2022-10-20T15:12:31.181Z,50
2022-10-20T15:18:06.307Z,48.6
2022-10-20T15:23:41.215Z,43.8
2022-10-20T15:29:16.257Z,47.9
2022-10-20T15:34:52.497Z,48.4
2022-10-20T15:40:28.181Z,44.9
2022-10-20T15:46:04.360Z,49.2
2022-10-20T15:51:39.060Z,49.7
2022-10-20T15:57:14.932Z,48.5
2022-10-20T16:02:49.739Z,48.7
2022-10-20T16:08:24.650Z,50.6
2022-10-20T16:13:59.845Z,51.1
2022-10-20T16:19:35.084Z,52.7
2022-10-20T16:25:09.961Z,49.8
2022-10-20T16:30:53.246Z,48.7
2022-10-20T16:36:27.897Z,50.8
2022-10-20T16:42:03.768Z,52.1
2022-10-20T16:47:39.452Z,54.1
2022-10-20T16:53:15.559Z,53.5
2022-10-20T16:58:50.494Z,57.6
2022-10-20T17:04:25.433Z,55.4
2022-10-20T17:10:00.729Z,50.3
2022-10-20T17:15:35.440Z,52.6
2022-10-20T17:21:11.166Z,49.5
2022-10-20T17:26:46.258Z,53
2022-10-20T17:32:21.318Z,52.6
2022-10-20T17:37:56.162Z,46.2
2022-10-20T17:43:41.852Z,44.1
2022-10-20T17:49:17.047Z,44.1
2022-10-20T17:54:52.194Z,44.9
2022-10-20T18:00:56.317Z,46.9
2022-10-20T18:06:35.085Z,47.5
2022-10-20T18:12:09.900Z,47.8
2022-10-20T18:17:44.733Z,47.6
2022-10-20T18:23:19.614Z,49.1
2022-10-20T18:28:54.541Z,50.9
2022-10-20T18:34:29.422Z,51.4
2022-10-20T18:40:04.208Z,51.6
2022-10-20T18:45:38.959Z,52.5
2022-10-20T18:51:13.707Z,53.1
2022-10-20T18:56:48.668Z,51.7
2022-10-20T19:02:23.819Z,52.9
2022-10-20T19:07:58.658Z,52.1
2022-10-20T19:13:35.060Z,52.4
2022-10-20T19:19:10.222Z,52.6
2022-10-20T19:24:45.032Z,49.9
2022-10-20T19:30:20.381Z,55.1
2022-10-20T19:35:56.013Z,52.5
2022-10-20T19:41:30.949Z,52.8
2022-10-20T19:47:06.026Z,53.3
2022-10-20T19:52:41.198Z,51.8
2022-10-20T19:58:17.126Z,48.6
2022-10-20T20:03:52.202Z,53.2
2022-10-20T20:09:26.938Z,51.9
2022-10-20T20:15:01.848Z,52.7
2022-10-20T20:20:36.739Z,54.3
2022-10-20T20:26:16.185Z,54.4
2022-10-20T20:31:51.333Z,52.6
2022-10-20T20:37:26.155Z,53.6
2022-10-20T20:43:02.308Z,54.4
2022-10-20T20:48:37.450Z,53.6
2022-10-20T20:54:12.213Z,68.2
2022-10-20T20:59:47.944Z,72.3
2022-10-20T21:05:22.850Z,60.7
2022-10-20T21:10:57.905Z,66.4
2022-10-20T21:16:36.865Z,63.7
2022-10-20T21:22:13.041Z,62.8
2022-10-20T21:27:48.129Z,62.2
2022-10-20T21:33:24.230Z,61.7
2022-10-20T21:39:07.050Z,60.9
2022-10-20T21:44:44.847Z,59.7
2022-10-20T21:50:26.695Z,58.6
2022-10-20T21:56:18.088Z,57.3
2022-10-20T22:01:57.812Z,56.7
2022-10-20T22:07:32.656Z,55.8
2022-10-20T22:13:12.944Z,55.3
2022-10-20T22:18:47.911Z,55.2
2022-10-20T22:24:30.568Z,55.4
2022-10-20T22:30:06.601Z,56.3
2022-10-20T22:35:53.084Z,57.6
2022-10-20T22:42:02.921Z,57.9
2022-10-20T22:47:41.053Z,58.1
2022-10-20T22:53:18.826Z,58.3
2022-10-20T22:58:53.678Z,58.3
2022-10-20T23:04:28.824Z,57.7
2022-10-20T23:10:03.795Z,56.9
2022-10-20T23:15:39.609Z,56.6
2022-10-20T23:21:14.563Z,56.3
2022-10-20T23:26:50.466Z,56.5
2022-10-20T23:32:25.533Z,56.7
2022-10-20T23:38:03.052Z,56.9
2022-10-20T23:43:39.512Z,57.3
2022-10-20T23:49:14.933Z,57.7
2022-10-20T23:55:02.847Z,57.5
